Latest Weather Observations for Trepell

IDQ60801

Issued at 8:32 am EST Thursday 27 July 2017 (issued every 30 minutes, with the page automatically refreshed every 10 minutes)

About weather observations | Map of weather stations | Latest weather observations for QLD | Other Formats
Station Details ID: 037036 Name: TREPELL AIRPORT Lat: -21.84 Lon: 140.89 Height: 266.2 m
Data from the previous 72 hours. | See also: Recent months at Trepell
Date/Time
EST
Temp
°C
App
Temp
°C
Dew
Point
°C
Rel
Hum
%
Delta-T
°C
Wind Press
QNH
hPa
Press
MSL
hPa
Rain since
9am
mm
Dir  Spd
km/h
Gust
km/h
Spd
kts
Gust
kts
27/08:30am 15.5 13.2 -2.0 30 7.2 CALM 0 0 0 0 1022.0 1021.6 0.0
27/08:00am 12.5 9.5 -2.1 36 5.8 NNE 4 6 2 3 1021.7 1021.3 0.0
27/07:30am 12.0 8.2 -3.4 34 5.9 NNE 7 9 4 5 1021.1 1020.7 0.0
27/07:00am 12.2 8.1 -2.8 35 5.9 N 9 9 5 5 1021.1 1020.7 0.0
27/06:30am 12.3 8.2 -2.7 35 5.9 NNE 9 9 5 5 1021.0 1020.6 0.0
27/06:00am 11.9 7.8 -2.7 36 5.7 NNE 9 9 5 5 1021.1 1020.7 0.0
27/05:30am 10.3 7.6 -2.7 40 5.0 NNE 2 6 1 3 1020.9 1020.5 0.0
27/05:00am 11.8 8.2 -3.5 34 5.9 NE 6 6 3 3 1020.6 1020.1 0.0
27/04:30am 13.0 8.9 -2.9 33 6.3 NE 9 11 5 6 1020.3 1019.8 0.0
27/04:00am 12.6 8.2 -2.8 34 6.0 NE 11 11 6 6 1020.2 1019.7 0.0
27/03:30am 12.7 8.6 -2.7 34 6.1 NE 9 13 5 7 1020.5 1020.0 0.0
27/03:00am 13.2 9.2 -2.3 34 6.2 ENE 9 9 5 5 1020.5 1020.0 0.0
27/02:30am 13.3 9.3 -2.2 34 6.2 ENE 9 9 5 5 1020.5 1020.0 0.0
27/02:00am 13.3 9.8 -2.6 33 6.3 NE 6 9 3 5 1020.7 1020.3 0.0
27/01:30am 12.9 9.2 -3.0 33 6.2 ENE 7 7 4 4 1020.8 1020.4 0.0
27/01:00am 14.0 10.6 -2.0 33 6.5 NE 6 6 3 3 1020.9 1020.5 0.0
27/12:30am 14.9 11.3 -2.1 31 7.0 E 7 9 4 5 1020.8 1020.4 0.0
27/12:00am 14.4 10.5 -1.6 33 6.6 ESE 9 11 5 6 1020.6 1020.1 0.0
 
Date/Time
EST
Temp
°C
App
Temp
°C
Dew
Point
°C
Rel
Hum
%
Delta-T
°C
Wind Press
QNH
hPa
Press
MSL
hPa
Rain since
9am
mm
Dir  Spd
km/h
Gust
km/h
Spd
kts
Gust
kts
26/11:30pm 14.8 10.3 -3.0 29 7.1 E 11 13 6 7 1020.3 1019.8 0.0
26/11:00pm 15.7 11.4 -1.8 30 7.2 ESE 11 13 6 7 1020.6 1020.1 0.0
26/10:30pm 18.0 12.6 -1.3 27 8.3 ESE 17 19 9 10 1020.8 1020.4 0.0
26/10:00pm 18.6 13.7 -0.7 27 8.4 SE 15 17 8 9 1020.8 1020.4 0.0
26/09:30pm 19.2 13.8 -1.3 25 8.9 SE 17 19 9 10 1020.7 1020.3 0.0
26/09:00pm 18.3 13.8 -0.5 28 8.2 SE 13 15 7 8 1020.7 1020.3 0.0
26/08:30pm 19.1 14.8 0.7 29 8.3 SE 13 15 7 8 1020.7 1020.3 0.0
26/08:00pm 19.7 15.4 1.2 29 8.4 SE 13 17 7 9 1020.5 1020.0 0.0
26/07:30pm 20.7 16.4 1.1 27 9.0 SE 13 15 7 8 1020.0 1019.5 0.0
26/07:00pm 21.2 16.9 1.0 26 9.3 SSE 13 15 7 8 1019.6 1019.2 0.0
26/06:30pm 23.2 18.7 -0.3 21 10.7 SE 13 15 7 8 1019.2 1018.8 0.0
26/06:00pm 25.1 20.1 -0.9 18 11.9 ESE 15 20 8 11 1018.9 1018.5 0.0
26/05:30pm 26.3 20.7 -3.3 14 13.1 ESE 17 24 9 13 1018.7 1018.3 0.0
26/05:00pm 26.6 20.5 -4.0 13 13.4 ESE 19 26 10 14 1018.5 1018.1 0.0
26/04:30pm 27.1 20.0 -4.7 12 13.8 ESE 24 37 13 20 1018.3 1017.9 0.0
26/04:00pm 27.3 20.7 -3.5 13 13.7 E 22 32 12 17 1018.4 1018.0 0.0
26/03:30pm 27.6 21.4 -3.3 13 13.8 E 20 32 11 17 1018.5 1018.1 0.0
26/03:00pm 28.0 21.4 -3.0 13 14.0 E 22 32 12 17 1018.7 1018.3 0.0
26/02:30pm 26.9 20.7 -2.8 14 13.4 ESE 20 30 11 16 1018.9 1018.5 0.0
26/02:00pm 27.3 20.4 -2.5 14 13.5 E 24 41 13 22 1019.3 1018.9 0.0
26/01:30pm 27.3 20.5 -1.6 15 13.3 E 24 37 13 20 1019.9 1019.4 0.0
26/01:00pm 26.6 20.8 -1.3 16 12.8 E 19 28 10 15 1020.2 1019.7 0.0
26/12:30pm 26.2 19.9 -0.8 17 12.5 E 22 35 12 19 1020.8 1020.4 0.0
26/12:00pm 26.3 19.3 -0.7 17 12.5 E 26 39 14 21 1021.3 1020.9 0.0
26/11:30am 25.7 18.2 -1.2 17 12.3 E 28 39 15 21 1021.6 1021.2 0.0
26/11:00am 25.3 18.1 0.8 20 11.6 E 28 35 15 19 1021.8 1021.4 0.0
26/10:30am 24.3 17.4 2.5 24 10.6 E 28 37 15 20 1021.9 1021.5 0.0
26/10:00am 23.0 17.4 3.5 28 9.5 E 22 28 12 15 1021.9 1021.5 0.0
26/09:30am 21.4 16.5 1.7 27 9.2 E 17 22 9 12 1021.9 1021.5 0.0
26/08:30am 15.2 13.4 1.4 39 6.1 CALM 0 6 0 3 1021.6 1021.2 0.0
26/08:00am 12.2 10.5 2.1 50 4.4 CALM 0 0 0 0 1021.3 1020.9 0.0
26/07:30am 10.4 7.3 1.2 53 3.9 SSW 7 9 4 5 1021.1 1020.7 0.0
26/07:00am 10.3 7.2 1.4 54 3.8 SSW 7 7 4 4 1020.8 1020.4 0.0
26/06:30am 10.6 7.6 1.9 55 3.7 SW 7 9 4 5 1020.6 1020.1 0.0
26/06:00am 10.5 7.6 2.4 57 3.5 SW 7 9 4 5 1020.2 1019.7 0.0
26/05:30am 10.5 7.8 2.4 57 3.5 SW 6 7 3 4 1020.0 1019.5 0.0
26/05:00am 11.0 8.2 2.3 55 3.8 SW 6 6 3 3 1020.0 1019.5 0.0
26/04:30am 11.4 9.1 2.9 56 3.8 SW 4 6 2 3 1019.9 1019.4 0.0
26/04:00am 11.9 10.4 2.9 54 4.0 CALM 0 0 0 0 1019.9 1019.4 0.0
26/03:30am 11.9 10.3 2.6 53 4.1 CALM 0 0 0 0 1019.7 1019.3 0.0
26/03:00am 12.4 10.9 2.8 52 4.3 CALM 0 0 0 0 1019.6 1019.2 0.0
26/02:30am 13.9 12.6 4.2 52 4.5 CALM 0 0 0 0 1019.9 1019.4 0.0
26/02:00am 13.9 12.4 3.1 48 4.9 CALM 0 6 0 3 1019.9 1019.4 0.0
26/01:30am 14.8 12.6 5.1 52 4.6 ESE 6 7 3 4 1020.0 1019.5 0.0
26/01:00am 14.5 12.4 3.9 49 4.9 SE 4 7 2 4 1020.1 1019.6 0.0
26/12:30am 15.1 13.8 4.2 48 5.1 CALM 0 0 0 0 1020.0 1019.5 0.0
26/12:00am 15.2 13.6 4.6 49 5.0 SSE 2 7 1 4 1020.0 1019.5 0.0
 
Date/Time
EST
Temp
°C
App
Temp
°C
Dew
Point
°C
Rel
Hum
%
Delta-T
°C
Wind Press
QNH
hPa
Press
MSL
hPa
Rain since
9am
mm
Dir  Spd
km/h
Gust
km/h
Spd
kts
Gust
kts
25/11:30pm 15.7 13.6 3.8 45 5.6 S 4 9 2 5 1020.2 1019.7 0.0
25/11:00pm 17.3 15.1 5.3 45 5.8 SE 6 9 3 5 1020.4 1019.9 0.0
25/10:30pm 17.7 15.1 5.9 46 5.8 SE 9 13 5 7 1020.3 1019.8 0.0
25/10:00pm 17.7 14.8 4.6 42 6.3 ESE 9 11 5 6 1020.3 1019.8 0.0
25/09:30pm 19.0 15.4 5.1 40 6.8 ESE 13 15 7 8 1020.1 1019.6 0.0
25/09:00pm 19.5 16.2 4.4 37 7.3 ESE 11 15 6 8 1020.0 1019.5 0.0
25/08:30pm 20.6 17.0 5.0 36 7.7 ESE 13 17 7 9 1019.9 1019.4 0.0
25/08:00pm 21.2 17.5 4.7 34 8.2 SE 13 17 7 9 1019.5 1019.1 0.0
25/07:30pm 21.9 17.9 4.9 33 8.5 SE 15 17 8 9 1019.1 1018.7 0.0
25/07:00pm 23.1 19.1 5.1 31 9.1 SE 15 19 8 10 1018.8 1018.4 0.0
25/06:30pm 23.5 19.7 4.0 28 9.7 ESE 13 15 7 8 1018.4 1018.0 0.0
25/06:00pm 25.0 20.9 4.2 26 10.5 ESE 15 20 8 11 1018.2 1017.8 0.0
25/05:30pm 26.0 21.7 1.3 20 11.9 ESE 13 17 7 9 1018.0 1017.6 0.0
25/05:00pm 26.7 21.3 1.2 19 12.3 SE 19 24 10 13 1017.8 1017.4 0.0
25/04:30pm 27.1 21.9 2.2 20 12.3 ESE 19 26 10 14 1017.7 1017.3 0.0
25/04:00pm 26.9 21.9 3.4 22 11.8 SE 19 26 10 14 1017.6 1017.2 0.0
25/03:30pm 27.4 22.4 3.8 22 12.0 ESE 19 28 10 15 1017.7 1017.3 0.0
25/03:00pm 27.4 22.4 4.5 23 11.8 ESE 20 32 11 17 1017.8 1017.4 0.0
25/02:30pm 27.2 23.0 3.7 22 11.9 SE 15 24 8 13 1018.1 1017.7 0.0
25/02:00pm 27.9 23.5 4.9 23 11.9 SSE 17 22 9 12 1018.5 1018.1 0.0
25/01:30pm 26.5 23.8 3.7 23 11.5 E 7 17 4 9 1018.9 1018.5 0.0
25/01:00pm 26.7 23.0 4.5 24 11.3 SE 13 24 7 13 1019.4 1019.0 0.0
25/12:30pm 26.5 22.1 4.9 25 11.1 E 17 28 9 15 1020.2 1019.7 0.0
25/12:00pm 25.9 21.7 5.5 27 10.5 ENE 17 26 9 14 1020.9 1020.5 0.0
25/11:30am 25.6 20.6 6.3 29 10.1 ENE 22 28 12 15 1021.3 1020.9 0.0
25/11:00am 25.1 21.2 7.3 32 9.5 ENE 17 24 9 13 1021.9 1021.5 0.0
25/10:30am 22.5 19.2 6.3 35 8.3 ENE 13 19 7 10 1022.2 1021.8 0.0
25/10:00am 21.0 17.6 5.8 37 7.7 E 13 19 7 10 1022.4 1022.0 0.0
25/09:30am 19.1 16.0 3.7 36 7.4 ESE 9 11 5 6 1022.2 1021.8 0.0
25/09:00am 17.8 15.0 2.2 35 7.1 SSE 6 7 3 4 1021.8 1021.4 0.0
25/08:30am 15.6 12.6 1.7 39 6.2 SSW 7 7 4 4 1021.8 1021.4 0.0
25/08:00am 13.2 9.7 1.2 44 5.2 WSW 9 9 5 5 1021.5 1021.1 0.0
25/07:30am 11.8 8.6 0.9 47 4.6 W 7 9 4 5 1021.3 1020.9 0.0
25/07:00am 11.2 8.0 0.9 49 4.3 SW 7 9 4 5 1021.0 1020.6 0.0
25/06:30am 10.9 7.3 0.9 50 4.2 SW 9 11 5 6 1020.5 1020.0 0.0
25/06:00am 12.0 9.0 0.8 46 4.7 SSW 6 7 3 4 1020.3 1019.8 0.0
25/05:30am 12.1 9.1 0.5 45 4.9 WSW 6 7 3 4 1020.1 1019.6 0.0
25/05:00am 12.5 9.3 0.9 45 4.9 W 7 9 4 5 1019.9 1019.4 0.0
25/04:30am 12.4 8.7 0.2 43 5.1 WSW 9 9 5 5 1019.5 1019.1 0.0
25/04:00am 12.4 10.4 -0.1 42 5.2 CALM 0 0 0 0 1019.5 1019.1 0.0
25/03:30am 13.5 11.5 -0.2 39 5.8 CALM 0 0 0 0 1019.5 1019.1 0.0
25/03:00am 13.2 10.4 -0.4 39 5.7 WNW 4 7 2 4 1019.5 1019.1 0.0
25/02:30am 13.3 10.0 -1.1 37 5.9 WSW 6 6 3 3 1019.4 1019.0 0.0
25/02:00am 13.5 10.2 -0.9 37 5.9 WSW 6 7 3 4 1019.4 1019.0 0.0
25/01:30am 13.7 10.3 -0.7 37 6.0 SSW 7 9 4 5 1019.5 1019.1 0.0
25/01:00am 14.1 10.3 -1.1 35 6.3 S 9 11 5 6 1019.5 1019.1 0.0
25/12:30am 14.6 11.1 -1.1 34 6.5 SW 7 9 4 5 1019.5 1019.1 0.0
25/12:00am 14.4 10.6 -0.8 35 6.3 SW 9 11 5 6 1019.5 1019.1 0.0
 
Date/Time
EST
Temp
°C
App
Temp
°C
Dew
Point
°C
Rel
Hum
%
Delta-T
°C
Wind Press
QNH
hPa
Press
MSL
hPa
Rain since
9am
mm
Dir  Spd
km/h
Gust
km/h
Spd
kts
Gust
kts
24/11:30pm 15.4 10.8 -1.2 32 7.0 SSW 13 15 7 8 1019.6 1019.2 0.0
24/11:00pm 17.3 13.1 -0.9 29 7.8 S 11 15 6 8 1019.9 1019.4 0.0
24/10:30pm 18.9 14.0 -0.5 27 8.5 SSE 15 17 8 9 1019.6 1019.2 0.0
24/10:00pm 19.5 14.4 0.5 28 8.5 SSE 17 22 9 12 1019.5 1019.1 0.0
24/09:30pm 19.4 14.7 0.9 29 8.4 SSE 15 19 8 10 1019.3 1018.9 0.0
24/09:00pm 19.5 14.9 1.5 30 8.3 SSE 15 20 8 11 1019.3 1018.9 0.0
24/08:30pm 19.4 14.9 2.3 32 8.0 SSE 15 17 8 9 1019.0 1018.6 0.0
24/08:00pm 19.8 15.6 1.7 30 8.4 SSE 13 15 7 8 1018.8 1018.4 0.0
24/07:30pm 21.1 17.0 2.4 29 8.9 SSE 13 15 7 8 1018.4 1018.0 0.0
24/07:00pm 22.6 18.6 2.7 27 9.6 SSE 13 17 7 9 1018.1 1017.7 0.0
24/06:30pm 24.2 19.5 2.9 25 10.4 SSE 17 20 9 11 1017.7 1017.3 0.0
24/06:00pm 25.6 20.6 3.6 24 11.0 S 19 26 10 14 1017.4 1016.9 0.0
24/05:30pm 26.7 21.8 3.9 23 11.5 SSE 19 32 10 17 1017.0 1016.5 0.0
24/05:00pm 27.5 23.2 3.2 21 12.2 SE 15 24 8 13 1016.8 1016.3 0.0
24/04:30pm 27.5 23.3 3.9 22 12.0 SSE 15 24 8 13 1016.7 1016.2 0.0
24/04:00pm 28.2 24.4 3.8 21 12.4 SSE 13 24 7 13 1016.8 1016.3 0.0
24/03:30pm 28.1 24.8 4.4 22 12.2 SE 11 17 6 9 1016.8 1016.3 0.0
24/03:00pm 27.9 23.1 4.9 23 11.9 SE 19 26 10 14 1017.2 1016.7 0.0
24/02:30pm 27.5 23.1 4.5 23 11.8 ESE 17 24 9 13 1017.4 1016.9 0.0
24/02:00pm 27.1 22.3 4.8 24 11.5 SE 19 26 10 14 1017.8 1017.4 0.0
24/01:30pm 26.7 23.1 5.1 25 11.2 ESE 13 26 7 14 1018.3 1017.9 0.0
24/01:00pm 26.7 22.2 6.2 27 10.8 E 19 30 10 16 1018.9 1018.5 0.0
24/12:30pm 26.2 21.5 5.2 26 10.8 E 19 28 10 15 1019.6 1019.2 0.0
24/12:00pm 26.3 21.7 5.8 27 10.7 E 19 24 10 13 1020.2 1019.7 0.0
24/11:30am 25.4 21.3 4.5 26 10.6 ESE 15 26 8 14 1020.7 1020.3 0.0
24/11:00am 24.1 19.8 3.4 26 10.2 ESE 15 24 8 13 1021.2 1020.8 0.0
24/10:30am 22.3 18.6 0.2 23 10.1 SE 9 15 5 8 1021.4 1021.0 0.0
24/10:00am 19.5 15.8 -2.8 22 9.4 SSE 7 11 4 6 1021.5 1021.1 0.0
24/09:30am 17.9 13.7 -4.1 22 8.9 SSE 9 13 5 7 1021.5 1021.1 0.0
24/09:00am 15.6 11.3 -4.9 24 7.9 SSW 9 11 5 6 1021.2 1020.8 0.0

Other Formats:

Comma delimited format used in spreadsheet applications
http://www.bom.gov.au/fwo/IDQ60801/IDQ60801.94338.axf

JavaScript Object Notation format (JSON) in row-major order
http://www.bom.gov.au/fwo/IDQ60801/IDQ60801.94338.json